Time;durP1;ratioP1;P1;durP2;ratioP2;P2;SDS_P1;SDS_P2;PMS_P1;PMS_P2;Temp;Humidity;BMP_temperature;BMP_pressure;BME280_temperature;BME280_humidity;BME280_pressure;Samples;Min_cycle;Max_cycle;Signal;HPM_P1;HPM_P2
2022/06/27 00:00:09;;;;;;;4.88;2.92;;;19.30;99.90;;;19.64;100.00;100416.44;4968206;28;20046;-75
2022/06/27 00:02:40;;;;;;;3.10;2.55;;;19.20;99.90;;;19.60;100.00;100406.94;4983027;28;20046;-75
2022/06/27 00:05:10;;;;;;;4.50;2.35;;;19.30;99.90;;;19.58;100.00;100406.13;4987989;28;20042;-74
2022/06/27 00:07:38;;;;;;;4.13;2.10;;;19.30;99.90;;;19.60;100.00;100409.59;4987924;28;20047;-75
2022/06/27 00:10:07;;;;;;;3.78;2.55;;;19.30;99.90;;;19.69;100.00;100407.22;4987444;28;20057;-75
2022/06/27 00:12:35;;;;;;;5.38;2.60;;;19.30;99.90;;;19.72;100.00;100405.31;4987423;28;20061;-75
2022/06/27 00:15:04;;;;;;;4.72;2.60;;;19.30;99.90;;;19.71;100.00;100399.09;4987853;28;20082;-75
2022/06/27 00:17:31;;;;;;;5.40;2.25;;;19.30;99.90;;;19.72;100.00;100405.31;4971857;28;20066;-74
2022/06/27 00:19:58;;;;;;;5.13;2.63;;;19.30;99.90;;;19.88;100.00;100399.84;4986992;28;20050;-75
2022/06/27 00:22:27;;;;;;;2.95;2.47;;;19.30;99.90;;;19.87;100.00;100393.66;4989191;28;20109;-74
2022/06/27 00:24:54;;;;;;;3.22;2.30;;;19.40;99.90;;;19.83;100.00;100381.47;4988907;28;20053;-75
2022/06/27 00:27:21;;;;;;;5.90;2.67;;;19.40;99.90;;;19.83;100.00;100378.81;4987248;28;20042;-75
2022/06/27 00:29:48;;;;;;;3.33;2.70;;;19.30;99.90;;;19.75;100.00;100397.09;4971331;28;20062;-74
2022/06/27 00:32:16;;;;;;;4.82;2.83;;;19.30;99.90;;;19.74;100.00;100406.06;4988437;28;20042;-74
2022/06/27 00:34:43;;;;;;;5.43;2.85;;;19.30;99.90;;;19.71;100.00;100415.09;4986947;28;20053;-75
2022/06/27 00:37:11;;;;;;;3.80;3.10;;;19.30;99.90;;;19.75;100.00;100423.78;4987409;28;20042;-75
2022/06/27 00:39:55;;;;;;;5.45;2.72;;;19.30;99.90;;;19.70;100.00;100426.75;4987273;28;20168;-75
2022/06/27 00:42:23;;;;;;;7.50;3.20;;;19.30;99.90;;;19.82;100.00;100447.34;4987872;28;20419;-76
2022/06/27 00:44:50;;;;;;;4.05;3.17;;;19.30;99.90;;;19.76;100.00;100446.84;4986832;28;20046;-74
2022/06/27 00:47:20;;;;;;;4.70;2.85;;;19.30;99.90;;;19.80;100.00;100456.38;4971696;28;20038;-74
2022/06/27 00:49:47;;;;;;;3.75;2.45;;;19.30;99.90;;;19.79;100.00;100460.88;4986917;28;20043;-75
2022/06/27 00:52:32;;;;;;;3.60;2.70;;;19.30;99.90;;;19.78;100.00;100469.84;4973572;28;20066;-75
2022/06/27 00:54:59;;;;;;;3.88;2.70;;;19.60;99.90;;;19.71;100.00;100468.50;4970999;28;20145;-75
2022/06/27 00:57:28;;;;;;;2.90;2.42;;;19.90;99.90;;;19.77;100.00;100462.78;4971380;28;20519;-75
2022/06/27 00:59:58;;;;;;;3.65;2.50;;;19.20;99.90;;;19.74;100.00;100444.28;4986233;28;20046;-75
2022/06/27 01:02:28;;;;;;;6.22;2.78;;;19.20;99.90;;;19.77;100.00;100428.09;4974883;28;20076;-75
2022/06/27 01:04:55;;;;;;;3.75;2.30;;;19.20;99.90;;;19.75;100.00;100371.28;4983120;28;20053;-75
2022/06/27 01:07:28;;;;;;;2.63;2.00;;;19.20;99.90;;;19.69;100.00;100313.81;4951518;28;20053;-74
2022/06/27 01:10:03;;;;;;;3.33;2.00;;;19.20;99.90;;;19.72;100.00;100278.03;4951047;28;20081;-75
2022/06/27 01:12:34;;;;;;;4.30;2.28;;;19.20;99.90;;;19.56;100.00;100259.47;4978596;28;20469;-75
2022/06/27 01:15:05;;;;;;;2.72;1.90;;;19.20;99.90;;;19.53;100.00;100249.84;4950916;28;20055;-75
2022/06/27 01:17:33;;;;;;;;;;;19.10;99.90;;;19.60;100.00;100244.97;4968145;28;20443;-75
2022/06/27 01:20:00;;;;;;;3.25;2.00;;;19.10;99.90;;;19.55;100.00;100215.91;4966714;28;19933;-75
2022/06/27 01:22:28;;;;;;;2.50;1.75;;;19.10;99.90;;;19.48;100.00;100189.72;4967174;28;20510;-75
2022/06/27 01:25:05;;;;;;;2.50;1.50;;;19.10;99.90;;;19.46;100.00;100143.63;4966794;28;20782;-74
2022/06/27 01:27:33;;;;;;;1.55;1.25;;;19.10;99.90;;;19.37;100.00;100124.59;4951678;28;20050;-75
2022/06/27 01:30:01;;;;;;;1.58;1.23;;;19.00;99.90;;;19.34;100.00;100142.63;4950304;28;20043;-75
2022/06/27 01:32:30;;;;;;;1.60;1.20;;;19.00;99.90;;;19.33;100.00;100152.41;4980261;28;20145;-75
2022/06/27 01:34:57;;;;;;;2.03;1.50;;;18.90;99.90;;;19.43;100.00;100166.00;4986045;28;20069;-75
2022/06/27 01:37:24;;;;;;;3.10;1.50;;;18.90;99.90;;;19.35;100.00;100166.50;5002962;28;20046;-75
2022/06/27 01:39:54;;;;;;;1.45;1.30;;;18.90;99.90;;;19.36;100.00;100176.25;4970295;28;20050;-75
2022/06/27 01:42:25;;;;;;;1.13;1.02;;;18.90;99.90;;;19.32;100.00;100181.88;4986482;28;20062;-75
2022/06/27 01:44:53;;;;;;;1.30;1.10;;;18.90;99.90;;;19.33;100.00;100195.09;4983290;28;20042;-75
2022/06/27 01:47:21;;;;;;;1.67;1.02;;;18.90;99.90;;;19.39;100.00;100194.72;4986585;28;20137;-75
2022/06/27 01:49:56;;;;;;;1.30;1.20;;;18.90;99.90;;;19.39;100.00;100201.84;4985918;28;20133;-75
2022/06/27 01:52:28;;;;;;;1.38;1.27;;;18.90;99.90;;;19.32;100.00;100203.22;4969919;28;20105;-75
2022/06/27 01:54:56;;;;;;;1.65;1.10;;;18.90;99.90;;;19.37;100.00;100219.75;4970462;28;20056;-75
2022/06/27 01:57:24;;;;;;;1.38;1.17;;;18.90;99.90;;;19.36;100.00;100232.25;4970370;28;20069;-75
2022/06/27 01:59:51;;;;;;;2.72;1.20;;;18.90;99.90;;;19.38;100.00;100259.69;4985785;28;20042;-75
2022/06/27 02:02:19;;;;;;;2.03;0.90;;;19.00;99.90;;;19.27;100.00;100270.16;4974771;28;20058;-75
2022/06/27 02:04:48;;;;;;;1.55;1.08;;;18.90;99.90;;;19.16;100.00;100269.97;4966734;28;20046;-74
2022/06/27 02:07:17;;;;;;;3.28;1.20;;;18.90;99.90;;;19.16;100.00;100275.31;4966697;28;20038;-76
2022/06/27 02:09:45;;;;;;;1.25;1.15;;;18.80;99.90;;;19.13;100.00;100277.22;4966366;28;20046;-75
2022/06/27 02:12:18;;;;;;;1.48;1.00;;;18.80;99.90;;;19.15;100.00;100268.25;4975022;28;20059;-75
2022/06/27 02:14:54;;;;;;;2.50;1.67;;;18.70;99.90;;;19.10;100.00;100255.19;4983210;28;20050;-75
2022/06/27 02:17:32;;;;;;;2.20;2.00;;;18.80;99.90;;;18.95;100.00;100235.66;4937174;28;20050;-75
2022/06/27 02:20:00;;;;;;;3.42;2.55;;;18.80;99.90;;;18.94;100.00;100218.78;4965737;28;20427;-75
2022/06/27 02:22:29;;;;;;;3.13;2.38;;;18.70;99.90;;;18.91;100.00;100219.00;4950811;28;20047;-75
2022/06/27 02:24:57;;;;;;;4.78;2.35;;;18.60;99.90;;;18.85;100.00;100224.72;4970086;28;20504;-75
2022/06/27 02:27:24;;;;;;;2.67;1.95;;;18.60;99.90;;;18.79;100.00;100223.28;4968293;28;20414;-75
2022/06/27 02:29:52;;;;;;;2.97;1.90;;;18.50;99.90;;;18.76;100.00;100244.78;4950880;28;20046;-75
2022/06/27 02:32:19;;;;;;;4.68;2.00;;;18.40;99.90;;;18.73;100.00;100249.44;4961854;28;20050;-75
2022/06/27 02:34:50;;;;;;;2.55;2.00;;;18.50;99.90;;;18.75;100.00;100248.41;4986392;28;20049;-75
2022/06/27 02:37:18;;;;;;;2.45;1.63;;;18.40;99.90;;;18.73;100.00;100228.13;4987958;28;20381;-75
2022/06/27 02:39:48;;;;;;;2.95;2.10;;;18.40;99.90;;;18.68;100.00;100242.59;4969008;28;20043;-75
2022/06/27 02:42:20;;;;;;;5.78;1.77;;;18.30;99.90;;;18.70;100.00;100234.47;4983529;28;20053;-75
2022/06/27 02:44:49;;;;;;;2.50;1.95;;;18.40;99.90;;;18.70;100.00;100224.69;4969790;28;20053;-75
2022/06/27 02:47:21;;;;;;;2.25;1.70;;;18.40;99.90;;;18.74;100.00;100243.16;4989808;28;20070;-75
2022/06/27 02:49:49;;;;;;;3.33;1.98;;;18.40;99.90;;;18.74;100.00;100254.69;4972770;28;20089;-75
2022/06/27 02:52:30;;;;;;;2.47;2.08;;;18.40;99.90;;;18.70;100.00;100254.00;4989501;28;20035;-75
2022/06/27 02:55:14;;;;;;;3.20;2.47;;;18.40;99.90;;;18.73;100.00;100244.94;4974274;28;20098;-74
2022/06/27 02:57:56;;;;;;;4.22;2.50;;;18.40;99.90;;;18.70;100.00;100232.69;4991047;28;20065;-75
2022/06/27 03:00:27;;;;;;;2.60;2.13;;;18.30;99.90;;;18.68;100.00;100247.91;4973128;28;20038;-75
2022/06/27 03:02:58;;;;;;;2.83;2.42;;;18.40;99.90;;;18.74;100.00;100251.16;4989404;28;20050;-75
2022/06/27 03:05:27;;;;;;;3.13;2.00;;;18.40;99.90;;;18.78;100.00;100255.34;4989300;28;20049;-76
2022/06/27 03:07:55;;;;;;;3.40;2.28;;;18.30;99.90;;;18.80;100.00;100248.09;4990560;28;20475;-75
2022/06/27 03:10:23;;;;;;;4.40;2.90;;;18.40;99.90;;;18.79;100.00;100222.41;4988385;28;20050;-75
2022/06/27 03:12:50;;;;;;;4.57;2.28;;;18.40;99.90;;;18.84;100.00;100223.00;4973366;28;20069;-75
2022/06/27 03:15:18;;;;;;;2.38;2.17;;;18.40;99.90;;;18.90;100.00;100219.09;4972680;28;20076;-75
2022/06/27 03:17:47;;;;;;;3.40;2.47;;;18.50;99.90;;;18.87;100.00;100214.81;4989237;28;20086;-75
2022/06/27 03:20:45;;;;;;;3.33;2.60;;;18.50;99.90;;;18.89;100.00;100217.34;4988967;28;20145;-75
2022/06/27 03:23:30;;;;;;;2.55;2.25;;;18.50;99.90;;;18.89;100.00;100209.38;4991165;28;20112;-76
2022/06/27 03:25:57;;;;;;;2.92;2.50;;;18.50;99.90;;;18.85;100.00;100212.22;4972661;28;20042;-76
2022/06/27 03:28:34;;;;;;;2.78;2.28;;;18.50;99.90;;;18.83;100.00;100210.63;4989029;28;20038;-75
2022/06/27 03:31:03;;;;;;;4.30;2.22;;;18.50;99.90;;;18.82;100.00;100217.75;4970788;28;20046;-76
2022/06/27 03:33:35;;;;;;;3.47;2.92;;;18.40;99.90;;;18.79;100.00;100231.25;4938618;28;20054;-75
2022/06/27 03:36:11;;;;;;;3.63;2.63;;;19.00;99.90;;;18.79;100.00;100222.41;4954478;28;20050;-75
2022/06/27 03:38:39;;;;;;;3.13;2.83;;;18.40;99.90;;;18.77;100.00;100222.50;4953393;28;20531;-75
2022/06/27 03:41:07;;;;;;;3.80;3.20;;;18.50;99.90;;;18.78;100.00;100226.00;4952403;28;20468;-76
2022/06/27 03:43:34;;;;;;;4.32;2.25;;;18.50;99.90;;;18.78;100.00;100236.69;4968920;28;20373;-75
2022/06/27 03:46:02;;;;;;;4.10;2.45;;;18.50;99.90;;;18.71;100.00;100242.38;4968972;28;20693;-76
2022/06/27 03:51:35;;;;;;;7.25;2.70;;;18.50;99.90;;;18.73;100.00;100266.25;4968446;28;20078;-75
2022/06/27 03:54:02;;;;;;;3.53;2.67;;;18.40;99.90;;;18.74;100.00;100284.00;4984438;28;20050;-75
2022/06/27 03:56:29;;;;;;;4.50;2.97;;;18.50;99.90;;;18.71;100.00;100290.34;4987538;28;20077;-75
2022/06/27 03:58:56;;;;;;;7.88;2.90;;;18.40;99.90;;;18.75;100.00;100280.38;4988838;28;20045;-75
2022/06/27 04:01:25;;;;;;;5.70;3.70;;;18.40;99.90;;;18.71;100.00;100274.38;4966673;28;20058;-75
2022/06/27 04:03:52;;;;;;;5.38;3.78;;;18.50;99.90;;;18.70;100.00;100272.66;4969381;28;20054;-75
2022/06/27 04:06:21;;;;;;;3.80;3.40;;;18.40;99.90;;;18.72;100.00;100272.53;4968852;28;20046;-76
2022/06/27 04:08:48;;;;;;;4.10;2.95;;;18.40;99.90;;;18.79;100.00;100278.38;4968069;28;20085;-76
2022/06/27 04:11:16;;;;;;;3.33;3.00;;;18.40;99.90;;;18.78;100.00;100298.84;4969571;28;20543;-75
2022/06/27 04:13:47;;;;;;;4.50;3.50;;;18.50;99.90;;;18.82;100.00;100315.53;4982006;28;20066;-76
2022/06/27 04:16:32;;;;;;;4.13;2.90;;;18.50;99.90;;;18.75;100.00;100320.34;4972594;28;20064;-75
2022/06/27 04:19:23;;;;;;;6.00;3.83;;;18.50;99.90;;;18.86;100.00;100311.72;4962474;28;20058;-78
2022/06/27 04:22:02;;;;;;;3.92;2.95;;;18.50;99.90;;;18.89;100.00;100303.53;4976702;28;20689;-75
2022/06/27 04:24:58;;;;;;;3.78;3.38;;;18.50;99.90;;;18.92;100.00;100284.69;4962047;28;20058;-74
2022/06/27 04:27:40;;;;;;;3.95;3.55;;;18.50;99.90;;;18.97;100.00;100287.94;4955963;28;20081;-79
2022/06/27 04:30:09;;;;;;;4.85;4.10;;;18.60;99.90;;;19.08;100.00;100291.78;4970395;28;20047;-77
2022/06/27 04:32:36;;;;;;;6.28;5.68;;;18.60;99.90;;;18.96;100.00;100312.84;4963386;28;20045;-77
2022/06/27 04:35:04;;;;;;;5.95;5.35;;;18.70;99.90;;;18.97;100.00;100301.28;4973194;28;20046;-77
2022/06/27 04:37:31;;;;;;;5.65;5.10;;;18.70;99.90;;;18.95;100.00;100303.16;4985248;28;20055;-77
2022/06/27 04:40:19;;;;;;;5.43;4.93;;;18.70;99.90;;;18.99;100.00;100307.41;4968881;28;20109;-76
2022/06/27 04:42:50;;;;;;;7.03;5.70;;;18.70;99.90;;;19.01;100.00;100301.13;4969110;28;20251;-77
2022/06/27 04:45:18;;;;;;;;;;;18.70;99.90;;;19.06;100.00;100312.34;4969862;28;20444;-77
2022/06/27 04:47:55;;;;;;;5.22;4.43;;;18.70;99.90;;;19.09;100.00;100314.81;4984643;28;19932;-77
2022/06/27 04:50:23;;;;;;;4.47;4.07;;;18.80;99.90;;;19.16;100.00;100323.31;4966194;28;20058;-77
2022/06/27 04:52:50;;;;;;;6.05;3.53;;;18.80;99.90;;;19.17;100.00;100333.91;4990043;28;20054;-79
2022/06/27 04:55:17;;;;;;;4.85;3.53;;;18.90;99.90;;;19.19;100.00;100339.13;4973226;28;20057;-78
2022/06/27 04:57:46;;;;;;;5.40;3.35;;;19.00;99.90;;;19.22;100.00;100342.47;4968896;28;20061;-79
2022/06/27 05:00:16;;;;;;;5.38;4.00;;;19.00;99.90;;;19.27;100.00;100343.03;4954085;28;20139;-79
2022/06/27 05:03:07;;;;;;;4.20;3.65;;;19.00;99.90;;;19.26;100.00;100341.31;4981895;28;20133;-79
2022/06/27 05:05:38;;;;;;;4.20;3.67;;;19.10;99.90;;;19.27;100.00;100335.03;4956337;28;20050;-77
2022/06/27 05:08:06;;;;;;;8.05;4.13;;;19.00;99.90;;;19.30;100.00;100326.00;4986095;28;20050;-77
2022/06/27 05:10:41;;;;;;;5.43;3.92;;;19.10;99.90;;;19.36;100.00;100322.09;4971349;28;20053;-77
2022/06/27 05:13:09;;;;;;;5.45;4.95;;;19.10;99.90;;;19.38;100.00;100312.19;4967459;28;20043;-78
2022/06/27 05:15:39;;;;;;;6.25;4.47;;;19.10;99.90;;;19.47;100.00;100300.06;4967885;28;20058;-77
2022/06/27 05:18:06;;;;;;;5.70;5.20;;;19.10;99.90;;;19.46;100.00;100285.91;4968699;28;20042;-78
2022/06/27 05:20:34;;;;;;;6.82;4.63;;;19.20;99.90;;;19.49;100.00;100298.16;4951232;28;20769;-77
2022/06/27 05:23:01;;;;;;;6.43;5.93;;;19.20;99.90;;;19.41;100.00;100325.31;4968531;28;20554;-77
2022/06/27 05:25:30;;;;;;;5.65;5.15;;;19.20;99.90;;;19.45;100.00;100318.88;4983865;28;20133;-77
2022/06/27 05:27:58;;;;;;;6.38;5.75;;;19.20;99.90;;;19.49;100.00;100323.06;4968230;28;20043;-77
2022/06/27 05:30:25;;;;;;;7.93;5.35;;;19.20;99.90;;;19.53;100.00;100339.72;4967459;28;20058;-77
2022/06/27 05:32:52;;;;;;;7.78;5.57;;;19.20;99.90;;;19.46;100.00;100357.94;4999825;28;20762;-77
2022/06/27 05:35:20;;;;;;;5.07;4.47;;;19.20;99.90;;;19.54;100.00;100370.78;4971172;28;20061;-77
2022/06/27 05:37:51;;;;;;;5.00;4.50;;;19.20;99.90;;;19.54;100.00;100368.97;4987087;28;20061;-77
2022/06/27 05:40:19;;;;;;;7.05;6.40;;;19.30;99.90;;;19.51;100.00;100381.63;4986944;28;20125;-78
2022/06/27 05:42:48;;;;;;;7.47;6.35;;;19.20;99.90;;;19.42;100.00;100383.94;4986746;28;20068;-77
2022/06/27 05:45:17;;;;;;;6.40;5.53;;;19.20;99.90;;;19.44;100.00;100390.97;4987252;28;20054;-77
2022/06/27 05:48:04;;;;;;;4.97;4.45;;;19.20;99.90;;;19.39;100.00;100392.13;4986969;28;20530;-77
2022/06/27 05:50:37;;;;;;;6.32;5.13;;;19.20;99.90;;;19.44;100.00;100397.19;4971737;28;20042;-77
2022/06/27 05:53:04;;;;;;;7.10;5.90;;;19.20;99.90;;;19.39;100.00;100417.94;4970691;28;20042;-77
2022/06/27 05:55:33;;;;;;;7.05;5.68;;;19.20;99.90;;;19.41;100.00;100427.56;4986989;28;20046;-77
2022/06/27 05:58:03;;;;;;;6.05;5.45;;;19.20;99.90;;;19.45;100.00;100420.25;4981383;28;20041;-77
2022/06/27 06:00:31;;;;;;;6.07;5.47;;;19.20;99.90;;;19.41;100.00;100416.91;4967662;28;20051;-77
2022/06/27 06:02:59;;;;;;;6.07;5.50;;;19.30;99.90;;;19.44;100.00;100410.53;4989099;28;20385;-77
2022/06/27 06:05:28;;;;;;;6.35;5.38;;;19.30;99.90;;;19.46;100.00;100405.97;4965517;28;20046;-78
2022/06/27 06:08:04;;;;;;;6.15;5.00;;;19.20;99.90;;;19.45;100.00;100417.59;4952210;28;20149;-77
2022/06/27 06:10:34;;;;;;;8.43;4.95;;;19.30;99.90;;;19.47;100.00;100420.13;4952620;28;20161;-77
2022/06/27 06:13:03;;;;;;;6.53;5.40;;;19.20;99.90;;;19.47;100.00;100420.13;4951263;28;20417;-77
2022/06/27 06:15:31;;;;;;;7.45;5.68;;;19.20;99.90;;;19.40;100.00;100433.00;4936059;28;20437;-77
2022/06/27 06:18:03;;;;;;;7.20;5.88;;;19.20;99.90;;;19.46;100.00;100427.31;4950931;28;20138;-77
2022/06/27 06:20:32;;;;;;;8.00;7.20;;;19.20;99.90;;;19.46;100.00;100426.44;4953282;28;20055;-77
2022/06/27 06:23:00;;;;;;;10.35;7.70;;;19.20;99.90;;;19.47;100.00;100421.00;4972225;28;20058;-77
2022/06/27 06:25:29;;;;;;;8.83;7.50;;;19.20;99.90;;;19.49;100.00;100427.09;4955709;28;20046;-77
2022/06/27 06:28:01;;;;;;;10.02;8.20;;;19.20;99.90;;;19.51;100.00;100435.88;4939500;28;20070;-77
2022/06/27 06:30:31;;;;;;;8.82;8.05;;;19.20;99.90;;;19.54;100.00;100438.34;4964540;28;20620;-77
2022/06/27 06:33:05;;;;;;;9.13;8.32;;;19.30;99.90;;;19.53;100.00;100441.13;4974761;28;20042;-77
2022/06/27 06:35:35;;;;;;;8.38;7.65;;;19.30;99.90;;;19.64;100.00;100435.13;4990386;28;20070;-77
2022/06/27 06:38:03;;;;;;;8.77;8.07;;;19.30;99.90;;;19.64;100.00;100433.31;4990166;28;20082;-77
2022/06/27 06:40:31;;;;;;;9.27;8.48;;;19.30;99.90;;;19.63;100.00;100436.94;4973519;28;20085;-77
2022/06/27 06:43:01;;;;;;;8.75;7.93;;;19.40;99.90;;;19.56;100.00;100431.09;4985289;28;20043;-77
2022/06/27 06:45:47;;;;;;;8.57;7.32;;;19.30;99.90;;;19.63;100.00;100426.25;4989713;28;20575;-77
2022/06/27 06:48:22;;;;;;;9.18;7.57;;;19.40;99.90;;;19.67;100.00;100430.47;4974749;28;20462;-77
2022/06/27 06:50:50;;;;;;;8.07;7.25;;;19.50;99.90;;;19.72;100.00;100440.84;4989255;28;20081;-76
2022/06/27 06:53:17;;;;;;;8.52;7.72;;;19.40;99.90;;;19.70;100.00;100442.75;4990109;28;20046;-77
2022/06/27 06:55:44;;;;;;;7.82;7.03;;;19.40;99.90;;;19.72;100.00;100443.50;4990894;28;20046;-77
2022/06/27 06:58:11;;;;;;;9.55;7.38;;;19.40;99.90;;;19.74;100.00;100446.94;4989749;28;20140;-77
2022/06/27 07:00:39;;;;;;;8.65;7.75;;;19.50;99.90;;;19.76;100.00;100455.75;4989317;28;20050;-77
2022/06/27 07:03:07;;;;;;;8.88;7.45;;;19.20;99.90;;;19.77;100.00;100443.22;4972396;28;20088;-77
2022/06/27 07:05:35;;;;;;;8.52;7.72;;;19.50;99.90;;;19.76;100.00;100445.06;4953965;28;20058;-77
2022/06/27 07:08:03;;;;;;;8.10;7.40;;;19.50;99.90;;;19.78;100.00;100453.84;4954285;28;20051;-77
2022/06/27 07:10:30;;;;;;;6.88;6.28;;;19.50;99.90;;;19.74;100.00;100435.41;4969819;28;20145;-77
2022/06/27 07:12:57;;;;;;;7.75;6.72;;;19.50;99.90;;;19.83;100.00;100446.38;4988156;28;20506;-77
2022/06/27 07:15:24;;;;;;;7.57;6.65;;;19.50;99.90;;;19.88;100.00;100448.78;4991964;28;20078;-79
2022/06/27 07:17:52;;;;;;;6.25;5.65;;;19.60;99.90;;;19.85;100.00;100454.31;4995877;28;20049;-78
2022/06/27 07:20:22;;;;;;;5.80;5.30;;;19.60;99.90;;;19.81;100.00;100439.41;4994995;28;20046;-79
2022/06/27 07:22:50;;;;;;;6.18;5.30;;;18.40;99.90;;;19.86;100.00;100428.47;4992166;28;20057;-80
2022/06/27 07:25:19;;;;;;;6.55;5.90;;;19.70;99.90;;;19.92;100.00;100418.28;4974863;28;20053;-80
2022/06/27 07:27:46;;;;;;;6.57;5.43;;;19.70;99.90;;;20.11;100.00;100412.66;4983178;28;20121;-80
2022/06/27 07:30:15;;;;;;;5.25;4.68;;;19.80;99.90;;;20.29;100.00;100416.91;4975049;28;20072;-81
2022/06/27 07:32:43;;;;;;;6.40;5.15;;;19.90;99.90;;;20.24;100.00;100419.88;4960498;28;20062;-80
2022/06/27 07:35:13;;;;;;;6.43;5.82;;;19.90;99.90;;;20.29;100.00;100409.75;4956400;28;20043;-80
2022/06/27 07:37:48;;;;;;;6.47;4.97;;;20.00;99.90;;;20.51;100.00;100413.69;4955808;28;20134;-80
2022/06/27 07:40:21;;;;;;;5.72;4.93;;;20.10;99.90;;;20.43;100.00;100421.38;4972642;28;20055;-82
2022/06/27 07:42:52;;;;;;;6.93;5.55;;;20.20;99.90;;;20.35;100.00;100425.38;4972057;28;20062;-81
2022/06/27 07:45:22;;;;;;;6.80;5.00;;;20.20;99.90;;;20.33;100.00;100421.09;4956589;28;20405;-80
2022/06/27 07:47:51;;;;;;;7.93;5.70;;;20.20;99.90;;;20.29;100.00;100432.94;4939672;28;20516;-82
2022/06/27 07:50:36;;;;;;;9.68;4.93;;;20.20;99.90;;;20.29;100.00;100447.16;4957450;28;20039;-80
2022/06/27 07:53:14;;;;;;;5.10;4.60;;;20.20;99.90;;;20.37;100.00;100458.22;4977347;28;20050;-80
2022/06/27 07:55:56;;;;;;;5.22;4.72;;;20.20;99.90;;;20.25;100.00;100456.34;4972861;28;20465;-78
2022/06/27 07:58:38;;;;;;;5.82;5.20;;;20.20;99.90;;;20.33;100.00;100470.03;4986935;28;20101;-79
2022/06/27 08:01:09;;;;;;;5.45;4.95;;;20.20;99.90;;;20.19;100.00;100473.59;4989141;28;20121;-78
2022/06/27 08:03:40;;;;;;;5.47;4.78;;;20.20;99.90;;;20.38;100.00;100478.66;4970612;28;20046;-80
2022/06/27 08:06:22;;;;;;;5.72;5.13;;;20.20;99.90;;;20.30;100.00;100461.38;4955845;28;20054;-79
2022/06/27 08:08:57;;;;;;;5.25;4.30;;;20.20;99.90;;;20.34;100.00;100465.56;4971181;28;20046;-79
2022/06/27 08:11:31;;;;;;;4.28;3.88;;;20.20;99.90;;;20.36;100.00;100466.31;4956494;28;20411;-79
2022/06/27 08:14:05;;;;;;;8.75;4.82;;;20.20;99.90;;;20.26;100.00;100471.41;4987144;28;20046;-79
2022/06/27 08:16:35;;;;;;;5.22;4.65;;;20.20;99.90;;;20.17;100.00;100482.66;4972419;28;20058;-79
2022/06/27 08:19:03;;;;;;;6.68;4.85;;;20.10;99.90;;;20.10;100.00;100484.84;4955328;28;20393;-78
2022/06/27 08:21:31;;;;;;;4.50;3.95;;;20.00;99.90;;;20.27;100.00;100468.63;4974267;28;20066;-79
2022/06/27 08:24:01;;;;;;;5.63;4.43;;;20.00;99.90;;;20.45;100.00;100470.22;4956743;28;20043;-78
2022/06/27 08:26:30;;;;;;;6.50;5.13;;;20.10;99.90;;;20.24;100.00;100478.66;4970390;28;20046;-79
2022/06/27 08:28:58;;;;;;;7.72;4.55;;;20.10;99.90;;;20.13;100.00;100506.00;4953954;28;20078;-79
2022/06/27 08:31:27;;;;;;;6.15;4.88;;;20.10;99.90;;;20.31;100.00;100516.53;4964021;28;20101;-78
2022/06/27 08:34:00;;;;;;;5.43;4.43;;;20.10;99.90;;;20.18;100.00;100511.94;4978784;28;20056;-78
2022/06/27 08:36:33;;;;;;;5.65;5.07;;;20.10;99.90;;;20.35;100.00;100518.06;4990803;28;20096;-78
2022/06/27 08:39:18;;;;;;;5.43;4.93;;;20.10;99.90;;;20.36;100.00;100525.09;4973763;28;20077;-78
2022/06/27 08:41:47;;;;;;;5.25;4.72;;;20.10;99.90;;;20.50;100.00;100525.09;4989993;28;20101;-79
2022/06/27 08:44:14;;;;;;;6.97;4.68;;;20.20;99.90;;;20.58;100.00;100526.41;4973684;28;20085;-78
2022/06/27 08:46:46;;;;;;;5.90;5.40;;;20.30;99.90;;;20.51;100.00;100520.59;4974428;28;20058;-78
2022/06/27 08:49:14;;;;;;;8.27;5.13;;;20.30;99.90;;;20.58;100.00;100524.59;4989629;28;20042;-78
2022/06/27 08:51:43;;;;;;;6.13;5.63;;;20.40;99.90;;;20.82;100.00;100497.25;4991410;28;20134;-81
2022/06/27 08:54:11;;;;;;;5.75;5.05;;;20.50;99.90;;;20.97;100.00;100484.72;4974356;28;20046;-82
2022/06/27 08:56:39;;;;;;;6.63;4.97;;;20.60;99.90;;;21.01;100.00;100517.47;4975303;28;20050;-81
2022/06/27 08:59:06;;;;;;;5.70;5.20;;;20.70;99.90;;;21.01;100.00;100525.50;4974250;28;20050;-82
2022/06/27 09:01:33;;;;;;;6.38;5.78;;;20.80;99.90;;;21.10;100.00;100530.22;4972378;28;20500;-81
2022/06/27 09:04:06;;;;;;;6.65;5.88;;;20.80;99.90;;;21.13;100.00;100511.28;4955180;28;20516;-82
2022/06/27 09:06:55;;;;;;;7.95;5.78;;;20.90;99.90;;;21.17;100.00;100515.50;4970286;28;20512;-81
2022/06/27 09:09:27;;;;;;;6.10;5.50;;;21.00;99.90;;;21.14;100.00;100520.19;4954650;28;20066;-81
2022/06/27 09:11:54;;;;;;;6.13;5.50;;;21.00;99.90;;;21.15;100.00;100512.06;4964048;28;20069;-81
2022/06/27 09:14:41;;;;;;;5.63;4.30;;;21.00;99.90;;;21.16;100.00;100519.13;4973448;28;20050;-81
2022/06/27 09:17:15;;;;;;;5.97;5.05;;;21.00;99.90;;;21.19;100.00;100520.72;4988926;28;20129;-81
2022/06/27 09:19:56;;;;;;;5.07;4.68;;;21.00;99.90;;;21.16;100.00;100537.88;4972653;28;20038;-81
2022/06/27 09:22:28;;;;;;;5.15;4.65;;;20.90;99.90;;;21.22;100.00;100529.41;4971868;28;20108;-78
2022/06/27 09:25:21;;;;;;;4.68;4.13;;;21.00;99.90;;;21.22;100.00;100537.44;4988514;28;20048;-78
2022/06/27 09:27:51;;;;;;;5.78;5.22;;;21.00;99.90;;;21.18;100.00;100560.03;4986420;28;20042;-77
2022/06/27 09:30:18;;;;;;;5.45;4.95;;;21.00;99.90;;;21.08;100.00;100553.56;4985891;28;20065;-77
2022/06/27 09:32:51;;;;;;;8.07;5.45;;;21.00;99.90;;;21.19;100.00;100550.16;4987966;28;20052;-78
2022/06/27 09:35:38;;;;;;;6.47;5.15;;;20.90;99.90;;;21.13;100.00;100563.97;4987290;28;20039;-77
2022/06/27 09:38:09;;;;;;;5.78;5.20;;;20.90;99.90;;;21.14;100.00;100557.66;4987539;28;20054;-77
2022/06/27 09:40:40;;;;;;;5.82;5.05;;;20.90;99.90;;;21.10;100.00;100551.63;4987220;28;20162;-78
2022/06/27 09:43:09;;;;;;;7.90;6.00;;;20.90;99.90;;;21.14;100.00;100549.63;5003918;28;20069;-78
2022/06/27 09:45:38;;;;;;;5.70;5.20;;;20.90;99.90;;;21.09;100.00;100531.19;4971132;28;20423;-78
2022/06/27 09:48:17;;;;;;;8.23;5.63;;;20.90;99.90;;;21.11;100.00;100534.63;4971783;28;20504;-77
2022/06/27 09:50:47;;;;;;;6.78;6.10;;;20.90;99.90;;;21.22;100.00;100548.16;4970509;28;20050;-77
2022/06/27 09:53:15;;;;;;;8.15;6.47;;;20.90;99.90;;;21.30;100.00;100560.16;4987822;28;20065;-76
2022/06/27 09:55:46;;;;;;;6.75;5.30;;;21.00;99.90;;;21.31;100.00;100569.88;4988264;28;20085;-78
2022/06/27 09:58:14;;;;;;;6.38;5.80;;;21.00;99.90;;;21.11;100.00;100572.06;4990455;28;20047;-77
2022/06/27 10:00:43;;;;;;;6.05;5.55;;;21.10;99.90;;;21.26;100.00;100575.56;4987417;28;20042;-78
2022/06/27 10:03:11;;;;;;;7.10;6.33;;;21.10;99.90;;;21.45;100.00;100591.25;4987548;28;20106;-77
2022/06/27 10:05:43;;;;;;;6.68;6.00;;;21.20;99.90;;;21.36;100.00;100589.19;4956330;28;20042;-77
2022/06/27 10:08:11;;;;;;;6.90;6.25;;;21.20;99.90;;;21.51;100.00;100592.66;4971303;28;20708;-77
2022/06/27 10:11:11;;;;;;;6.72;6.13;;;21.20;99.90;;;21.59;100.00;100584.13;4955899;28;20038;-80
2022/06/27 10:13:42;;;;;;;;;;;21.30;99.90;;;21.71;100.00;100585.16;4941346;28;20109;-79
2022/06/27 10:16:13;;;;;;;7.07;5.68;;;21.40;99.90;;;21.63;100.00;100594.53;4973112;28;19953;-79
2022/06/27 10:19:03;;;;;;;6.63;6.03;;;21.50;99.90;;;21.80;100.00;100603.25;4957701;28;20047;-78
2022/06/27 10:21:41;;;;;;;6.03;5.43;;;21.50;99.90;;;21.77;100.00;100595.44;4971229;28;20515;-77
2022/06/27 10:24:21;;;;;;;6.25;5.35;;;21.50;99.90;;;21.75;100.00;100608.09;4970617;28;20038;-77
2022/06/27 10:26:55;;;;;;;6.43;5.45;;;21.60;99.90;;;21.72;100.00;100614.50;4978632;28;20100;-78